sensor_id;sensor_type;location;lat;lon;timestamp;P1;durP1;ratioP1;P2;durP2;ratioP2
13973;SDS011;7060;43.770;4.008;2022-12-07T00:01:43;10.37;;;5.80;;
13973;SDS011;7060;43.770;4.008;2022-12-07T00:04:14;9.67;;;6.70;;
13973;SDS011;7060;43.770;4.008;2022-12-07T00:06:45;12.00;;;7.10;;
13973;SDS011;7060;43.770;4.008;2022-12-07T00:09:15;15.03;;;7.20;;
13973;SDS011;7060;43.770;4.008;2022-12-07T00:11:47;12.50;;;7.60;;
13973;SDS011;7060;43.770;4.008;2022-12-07T00:14:17;12.73;;;7.77;;
13973;SDS011;7060;43.770;4.008;2022-12-07T00:16:48;15.17;;;7.10;;
13973;SDS011;7060;43.770;4.008;2022-12-07T00:19:18;11.33;;;7.80;;
13973;SDS011;7060;43.770;4.008;2022-12-07T00:21:46;11.73;;;7.30;;
13973;SDS011;7060;43.770;4.008;2022-12-07T00:24:14;11.80;;;7.03;;
13973;SDS011;7060;43.770;4.008;2022-12-07T00:26:43;11.90;;;7.43;;
13973;SDS011;7060;43.770;4.008;2022-12-07T00:29:15;11.93;;;7.37;;
13973;SDS011;7060;43.770;4.008;2022-12-07T00:31:44;11.33;;;7.53;;
13973;SDS011;7060;43.770;4.008;2022-12-07T00:34:14;11.87;;;8.23;;
13973;SDS011;7060;43.770;4.008;2022-12-07T00:36:44;11.60;;;8.57;;
13973;SDS011;7060;43.770;4.008;2022-12-07T00:39:12;14.83;;;10.13;;
13973;SDS011;7060;43.770;4.008;2022-12-07T00:41:41;13.43;;;9.23;;
13973;SDS011;7060;43.770;4.008;2022-12-07T00:44:10;12.63;;;8.73;;
13973;SDS011;7060;43.770;4.008;2022-12-07T00:46:39;12.60;;;8.37;;
13973;SDS011;7060;43.770;4.008;2022-12-07T00:49:08;14.40;;;9.03;;
13973;SDS011;7060;43.770;4.008;2022-12-07T00:51:36;13.80;;;9.07;;
13973;SDS011;7060;43.770;4.008;2022-12-07T00:54:04;17.10;;;9.47;;
13973;SDS011;7060;43.770;4.008;2022-12-07T00:56:32;14.03;;;8.73;;
13973;SDS011;7060;43.770;4.008;2022-12-07T00:59:02;17.53;;;9.17;;
13973;SDS011;7060;43.770;4.008;2022-12-07T01:01:32;13.53;;;8.40;;
13973;SDS011;7060;43.770;4.008;2022-12-07T01:04:04;16.87;;;8.90;;
13973;SDS011;7060;43.770;4.008;2022-12-07T01:06:32;14.80;;;8.40;;
13973;SDS011;7060;43.770;4.008;2022-12-07T01:09:01;13.37;;;9.07;;
13973;SDS011;7060;43.770;4.008;2022-12-07T01:11:30;13.23;;;9.20;;
13973;SDS011;7060;43.770;4.008;2022-12-07T01:13:59;13.90;;;8.57;;
13973;SDS011;7060;43.770;4.008;2022-12-07T01:16:28;12.90;;;7.60;;
13973;SDS011;7060;43.770;4.008;2022-12-07T01:18:59;12.30;;;7.77;;
13973;SDS011;7060;43.770;4.008;2022-12-07T01:21:30;14.00;;;8.53;;
13973;SDS011;7060;43.770;4.008;2022-12-07T01:24:02;11.70;;;7.90;;
13973;SDS011;7060;43.770;4.008;2022-12-07T01:26:31;12.77;;;8.37;;
13973;SDS011;7060;43.770;4.008;2022-12-07T01:28:59;12.87;;;8.83;;
13973;SDS011;7060;43.770;4.008;2022-12-07T01:31:28;12.33;;;7.93;;
13973;SDS011;7060;43.770;4.008;2022-12-07T01:33:57;17.20;;;9.53;;
13973;SDS011;7060;43.770;4.008;2022-12-07T01:36:27;14.70;;;9.30;;
13973;SDS011;7060;43.770;4.008;2022-12-07T01:38:58;10.60;;;7.57;;
13973;SDS011;7060;43.770;4.008;2022-12-07T01:41:30;13.50;;;8.60;;
13973;SDS011;7060;43.770;4.008;2022-12-07T01:44:07;16.10;;;8.47;;
13973;SDS011;7060;43.770;4.008;2022-12-07T01:46:47;13.70;;;8.63;;
13973;SDS011;7060;43.770;4.008;2022-12-07T01:49:23;12.97;;;8.30;;
13973;SDS011;7060;43.770;4.008;2022-12-07T01:51:57;13.17;;;8.17;;
13973;SDS011;7060;43.770;4.008;2022-12-07T01:54:30;12.70;;;8.97;;
13973;SDS011;7060;43.770;4.008;2022-12-07T01:57:00;12.27;;;8.33;;
13973;SDS011;7060;43.770;4.008;2022-12-07T01:59:30;13.03;;;8.60;;
13973;SDS011;7060;43.770;4.008;2022-12-07T02:01:59;11.73;;;8.40;;
13973;SDS011;7060;43.770;4.008;2022-12-07T02:04:30;12.93;;;8.20;;
13973;SDS011;7060;43.770;4.008;2022-12-07T02:06:59;16.47;;;9.13;;
13973;SDS011;7060;43.770;4.008;2022-12-07T02:09:27;13.90;;;8.63;;
13973;SDS011;7060;43.770;4.008;2022-12-07T02:11:58;12.63;;;8.27;;
13973;SDS011;7060;43.770;4.008;2022-12-07T02:14:26;15.20;;;9.00;;
13973;SDS011;7060;43.770;4.008;2022-12-07T02:17:01;14.57;;;9.20;;
13973;SDS011;7060;43.770;4.008;2022-12-07T02:19:48;12.47;;;8.03;;
13973;SDS011;7060;43.770;4.008;2022-12-07T02:22:51;12.53;;;7.63;;
13973;SDS011;7060;43.770;4.008;2022-12-07T02:25:43;13.63;;;8.77;;
13973;SDS011;7060;43.770;4.008;2022-12-07T02:28:32;12.17;;;8.40;;
13973;SDS011;7060;43.770;4.008;2022-12-07T02:31:06;12.57;;;8.70;;
13973;SDS011;7060;43.770;4.008;2022-12-07T02:33:40;13.00;;;8.17;;
13973;SDS011;7060;43.770;4.008;2022-12-07T02:36:14;11.90;;;7.77;;
13973;SDS011;7060;43.770;4.008;2022-12-07T02:38:50;10.40;;;7.00;;
13973;SDS011;7060;43.770;4.008;2022-12-07T02:41:26;14.93;;;9.43;;
13973;SDS011;7060;43.770;4.008;2022-12-07T02:43:57;12.60;;;7.93;;
13973;SDS011;7060;43.770;4.008;2022-12-07T02:46:32;16.27;;;9.30;;
13973;SDS011;7060;43.770;4.008;2022-12-07T02:49:04;14.30;;;9.10;;
13973;SDS011;7060;43.770;4.008;2022-12-07T02:51:38;13.27;;;9.10;;
13973;SDS011;7060;43.770;4.008;2022-12-07T02:54:09;15.07;;;9.00;;
13973;SDS011;7060;43.770;4.008;2022-12-07T02:56:42;11.33;;;8.27;;
13973;SDS011;7060;43.770;4.008;2022-12-07T02:59:17;16.17;;;9.77;;
13973;SDS011;7060;43.770;4.008;2022-12-07T03:01:58;14.90;;;8.73;;
13973;SDS011;7060;43.770;4.008;2022-12-07T03:04:41;15.80;;;9.47;;
13973;SDS011;7060;43.770;4.008;2022-12-07T03:07:18;14.93;;;9.40;;
13973;SDS011;7060;43.770;4.008;2022-12-07T03:09:55;14.63;;;9.27;;
13973;SDS011;7060;43.770;4.008;2022-12-07T03:12:31;11.93;;;9.00;;
13973;SDS011;7060;43.770;4.008;2022-12-07T03:15:04;13.33;;;8.53;;
13973;SDS011;7060;43.770;4.008;2022-12-07T03:17:39;14.23;;;9.50;;
13973;SDS011;7060;43.770;4.008;2022-12-07T03:20:14;13.07;;;8.53;;
13973;SDS011;7060;43.770;4.008;2022-12-07T03:22:46;11.30;;;8.03;;
13973;SDS011;7060;43.770;4.008;2022-12-07T03:25:15;13.63;;;8.87;;
13973;SDS011;7060;43.770;4.008;2022-12-07T03:27:45;12.30;;;8.50;;
13973;SDS011;7060;43.770;4.008;2022-12-07T03:30:22;10.73;;;7.60;;
13973;SDS011;7060;43.770;4.008;2022-12-07T03:32:57;13.03;;;8.50;;
13973;SDS011;7060;43.770;4.008;2022-12-07T03:35:30;13.20;;;8.57;;
13973;SDS011;7060;43.770;4.008;2022-12-07T03:38:04;10.77;;;7.63;;
13973;SDS011;7060;43.770;4.008;2022-12-07T03:40:44;12.53;;;8.40;;
13973;SDS011;7060;43.770;4.008;2022-12-07T03:43:17;10.00;;;6.47;;
13973;SDS011;7060;43.770;4.008;2022-12-07T03:45:49;12.30;;;7.60;;
13973;SDS011;7060;43.770;4.008;2022-12-07T03:48:28;11.70;;;7.67;;
13973;SDS011;7060;43.770;4.008;2022-12-07T03:51:04;11.37;;;7.57;;
13973;SDS011;7060;43.770;4.008;2022-12-07T03:53:40;11.10;;;7.27;;
13973;SDS011;7060;43.770;4.008;2022-12-07T03:56:14;13.17;;;7.73;;
13973;SDS011;7060;43.770;4.008;2022-12-07T03:58:43;10.60;;;7.73;;
13973;SDS011;7060;43.770;4.008;2022-12-07T04:01:11;13.03;;;8.37;;
13973;SDS011;7060;43.770;4.008;2022-12-07T04:03:41;11.57;;;8.00;;
13973;SDS011;7060;43.770;4.008;2022-12-07T04:06:10;10.67;;;7.37;;
13973;SDS011;7060;43.770;4.008;2022-12-07T04:08:38;10.63;;;6.83;;
13973;SDS011;7060;43.770;4.008;2022-12-07T04:11:06;11.10;;;7.27;;
13973;SDS011;7060;43.770;4.008;2022-12-07T04:13:35;9.83;;;6.23;;
13973;SDS011;7060;43.770;4.008;2022-12-07T04:16:23;10.33;;;7.33;;
13973;SDS011;7060;43.770;4.008;2022-12-07T04:18:53;9.00;;;6.50;;
13973;SDS011;7060;43.770;4.008;2022-12-07T04:21:21;12.50;;;7.53;;
13973;SDS011;7060;43.770;4.008;2022-12-07T04:23:51;8.60;;;6.30;;
13973;SDS011;7060;43.770;4.008;2022-12-07T04:26:19;10.53;;;7.13;;
13973;SDS011;7060;43.770;4.008;2022-12-07T04:28:47;11.30;;;7.30;;
13973;SDS011;7060;43.770;4.008;2022-12-07T04:31:15;9.90;;;6.93;;
13973;SDS011;7060;43.770;4.008;2022-12-07T04:33:44;10.47;;;6.43;;
13973;SDS011;7060;43.770;4.008;2022-12-07T04:36:13;11.60;;;7.20;;
13973;SDS011;7060;43.770;4.008;2022-12-07T04:38:42;10.63;;;7.40;;
13973;SDS011;7060;43.770;4.008;2022-12-07T04:41:10;11.23;;;7.70;;
13973;SDS011;7060;43.770;4.008;2022-12-07T04:43:39;10.73;;;7.23;;
13973;SDS011;7060;43.770;4.008;2022-12-07T04:46:07;12.17;;;7.97;;
13973;SDS011;7060;43.770;4.008;2022-12-07T04:48:35;10.90;;;7.57;;
13973;SDS011;7060;43.770;4.008;2022-12-07T04:51:04;12.67;;;7.13;;
13973;SDS011;7060;43.770;4.008;2022-12-07T04:53:34;10.83;;;7.70;;
13973;SDS011;7060;43.770;4.008;2022-12-07T04:56:02;10.83;;;6.67;;
13973;SDS011;7060;43.770;4.008;2022-12-07T04:58:31;11.83;;;7.13;;
13973;SDS011;7060;43.770;4.008;2022-12-07T05:00:59;9.03;;;6.37;;
13973;SDS011;7060;43.770;4.008;2022-12-07T05:03:27;10.97;;;7.70;;
13973;SDS011;7060;43.770;4.008;2022-12-07T05:05:56;11.20;;;7.47;;
13973;SDS011;7060;43.770;4.008;2022-12-07T05:08:24;10.17;;;7.40;;
13973;SDS011;7060;43.770;4.008;2022-12-07T05:10:54;11.73;;;6.70;;
13973;SDS011;7060;43.770;4.008;2022-12-07T05:13:22;10.17;;;7.00;;
13973;SDS011;7060;43.770;4.008;2022-12-07T05:15:50;11.33;;;7.20;;
13973;SDS011;7060;43.770;4.008;2022-12-07T05:18:20;10.53;;;7.93;;
13973;SDS011;7060;43.770;4.008;2022-12-07T05:20:48;13.67;;;8.53;;
13973;SDS011;7060;43.770;4.008;2022-12-07T05:23:17;12.63;;;7.83;;
13973;SDS011;7060;43.770;4.008;2022-12-07T05:25:46;10.27;;;6.37;;
13973;SDS011;7060;43.770;4.008;2022-12-07T05:28:16;11.50;;;7.93;;
13973;SDS011;7060;43.770;4.008;2022-12-07T05:30:44;11.43;;;7.43;;
13973;SDS011;7060;43.770;4.008;2022-12-07T05:33:13;11.55;;;8.60;;
13973;SDS011;7060;43.770;4.008;2022-12-07T05:35:42;10.93;;;7.47;;
13973;SDS011;7060;43.770;4.008;2022-12-07T05:38:10;9.93;;;7.10;;
13973;SDS011;7060;43.770;4.008;2022-12-07T05:40:39;11.90;;;7.10;;
13973;SDS011;7060;43.770;4.008;2022-12-07T05:43:07;11.43;;;7.03;;
13973;SDS011;7060;43.770;4.008;2022-12-07T05:45:37;10.03;;;7.10;;
13973;SDS011;7060;43.770;4.008;2022-12-07T05:48:05;12.27;;;7.60;;
13973;SDS011;7060;43.770;4.008;2022-12-07T05:50:34;13.17;;;7.03;;
13973;SDS011;7060;43.770;4.008;2022-12-07T05:53:02;10.70;;;7.03;;
13973;SDS011;7060;43.770;4.008;2022-12-07T05:55:30;12.00;;;7.57;;
13973;SDS011;7060;43.770;4.008;2022-12-07T05:57:58;12.23;;;7.80;;
13973;SDS011;7060;43.770;4.008;2022-12-07T06:00:46;11.93;;;7.53;;
13973;SDS011;7060;43.770;4.008;2022-12-07T06:03:17;12.37;;;7.17;;
13973;SDS011;7060;43.770;4.008;2022-12-07T06:05:45;12.17;;;7.17;;
13973;SDS011;7060;43.770;4.008;2022-12-07T06:08:13;10.50;;;7.50;;
13973;SDS011;7060;43.770;4.008;2022-12-07T06:10:42;13.00;;;7.73;;
13973;SDS011;7060;43.770;4.008;2022-12-07T06:13:10;11.03;;;7.43;;
13973;SDS011;7060;43.770;4.008;2022-12-07T06:15:38;11.50;;;7.43;;
13973;SDS011;7060;43.770;4.008;2022-12-07T06:18:07;11.50;;;7.23;;
13973;SDS011;7060;43.770;4.008;2022-12-07T06:20:36;10.70;;;6.83;;
13973;SDS011;7060;43.770;4.008;2022-12-07T06:23:05;12.23;;;8.07;;
13973;SDS011;7060;43.770;4.008;2022-12-07T06:25:33;10.47;;;6.67;;
13973;SDS011;7060;43.770;4.008;2022-12-07T06:28:01;11.20;;;7.13;;
13973;SDS011;7060;43.770;4.008;2022-12-07T06:30:30;15.10;;;7.90;;
13973;SDS011;7060;43.770;4.008;2022-12-07T06:32:58;13.13;;;8.00;;
13973;SDS011;7060;43.770;4.008;2022-12-07T06:35:28;11.30;;;7.30;;
13973;SDS011;7060;43.770;4.008;2022-12-07T06:37:56;10.77;;;7.00;;
13973;SDS011;7060;43.770;4.008;2022-12-07T06:40:24;10.80;;;7.63;;
13973;SDS011;7060;43.770;4.008;2022-12-07T06:42:53;9.97;;;6.57;;
13973;SDS011;7060;43.770;4.008;2022-12-07T06:45:21;9.93;;;6.87;;
13973;SDS011;7060;43.770;4.008;2022-12-07T06:47:49;9.57;;;6.80;;
13973;SDS011;7060;43.770;4.008;2022-12-07T06:50:17;12.90;;;6.90;;
13973;SDS011;7060;43.770;4.008;2022-12-07T06:52:47;11.30;;;7.30;;
13973;SDS011;7060;43.770;4.008;2022-12-07T06:55:15;11.80;;;6.97;;
13973;SDS011;7060;43.770;4.008;2022-12-07T06:57:44;10.27;;;6.57;;
13973;SDS011;7060;43.770;4.008;2022-12-07T07:00:13;9.60;;;6.33;;
13973;SDS011;7060;43.770;4.008;2022-12-07T07:02:47;11.20;;;6.93;;
13973;SDS011;7060;43.770;4.008;2022-12-07T07:05:16;9.77;;;6.27;;
13973;SDS011;7060;43.770;4.008;2022-12-07T07:07:44;9.50;;;6.37;;
13973;SDS011;7060;43.770;4.008;2022-12-07T07:10:34;10.97;;;7.00;;
13973;SDS011;7060;43.770;4.008;2022-12-07T07:13:03;9.90;;;6.40;;
13973;SDS011;7060;43.770;4.008;2022-12-07T07:15:32;10.20;;;6.67;;
13973;SDS011;7060;43.770;4.008;2022-12-07T07:18:01;9.80;;;6.53;;
13973;SDS011;7060;43.770;4.008;2022-12-07T07:20:33;9.00;;;6.00;;
13973;SDS011;7060;43.770;4.008;2022-12-07T07:23:02;10.60;;;6.67;;
13973;SDS011;7060;43.770;4.008;2022-12-07T07:25:30;10.93;;;7.53;;
13973;SDS011;7060;43.770;4.008;2022-12-07T07:28:00;11.10;;;6.60;;
13973;SDS011;7060;43.770;4.008;2022-12-07T07:30:29;12.43;;;7.23;;
13973;SDS011;7060;43.770;4.008;2022-12-07T07:32:57;8.60;;;6.00;;
13973;SDS011;7060;43.770;4.008;2022-12-07T07:35:27;10.20;;;6.33;;
13973;SDS011;7060;43.770;4.008;2022-12-07T07:37:56;9.20;;;6.40;;
13973;SDS011;7060;43.770;4.008;2022-12-07T07:40:25;12.50;;;6.10;;
13973;SDS011;7060;43.770;4.008;2022-12-07T07:42:55;9.60;;;6.30;;
13973;SDS011;7060;43.770;4.008;2022-12-07T07:45:26;9.20;;;5.80;;
13973;SDS011;7060;43.770;4.008;2022-12-07T07:47:54;9.43;;;6.03;;
13973;SDS011;7060;43.770;4.008;2022-12-07T07:50:23;9.03;;;5.43;;
13973;SDS011;7060;43.770;4.008;2022-12-07T07:52:51;8.30;;;5.67;;
13973;SDS011;7060;43.770;4.008;2022-12-07T07:55:19;8.47;;;5.80;;
13973;SDS011;7060;43.770;4.008;2022-12-07T07:57:48;8.83;;;5.73;;
13973;SDS011;7060;43.770;4.008;2022-12-07T08:00:21;8.73;;;5.67;;
13973;SDS011;7060;43.770;4.008;2022-12-07T08:02:52;8.63;;;5.80;;
13973;SDS011;7060;43.770;4.008;2022-12-07T08:05:21;7.73;;;4.67;;
13973;SDS011;7060;43.770;4.008;2022-12-07T08:07:49;9.70;;;5.60;;
13973;SDS011;7060;43.770;4.008;2022-12-07T08:10:18;7.60;;;5.27;;
13973;SDS011;7060;43.770;4.008;2022-12-07T08:12:46;6.80;;;5.23;;
13973;SDS011;7060;43.770;4.008;2022-12-07T08:15:32;8.07;;;5.27;;
13973;SDS011;7060;43.770;4.008;2022-12-07T08:18:01;9.83;;;5.60;;
13973;SDS011;7060;43.770;4.008;2022-12-07T08:20:30;9.07;;;4.90;;
13973;SDS011;7060;43.770;4.008;2022-12-07T08:22:59;8.33;;;5.27;;
13973;SDS011;7060;43.770;4.008;2022-12-07T08:25:28;8.20;;;5.37;;
13973;SDS011;7060;43.770;4.008;2022-12-07T08:27:57;8.33;;;5.23;;
13973;SDS011;7060;43.770;4.008;2022-12-07T08:30:25;6.30;;;4.67;;
13973;SDS011;7060;43.770;4.008;2022-12-07T08:32:53;6.70;;;4.40;;
13973;SDS011;7060;43.770;4.008;2022-12-07T08:35:23;6.53;;;4.53;;
13973;SDS011;7060;43.770;4.008;2022-12-07T08:37:52;5.93;;;4.30;;
13973;SDS011;7060;43.770;4.008;2022-12-07T08:40:20;8.50;;;4.97;;
13973;SDS011;7060;43.770;4.008;2022-12-07T08:42:49;6.63;;;4.80;;
13973;SDS011;7060;43.770;4.008;2022-12-07T08:45:19;5.57;;;4.27;;
13973;SDS011;7060;43.770;4.008;2022-12-07T08:47:53;7.37;;;5.17;;
13973;SDS011;7060;43.770;4.008;2022-12-07T08:50:28;7.53;;;4.57;;
13973;SDS011;7060;43.770;4.008;2022-12-07T08:52:57;7.80;;;5.23;;
13973;SDS011;7060;43.770;4.008;2022-12-07T08:55:27;6.63;;;5.07;;
13973;SDS011;7060;43.770;4.008;2022-12-07T08:57:57;7.47;;;4.80;;
13973;SDS011;7060;43.770;4.008;2022-12-07T09:00:26;7.03;;;5.20;;
13973;SDS011;7060;43.770;4.008;2022-12-07T09:02:54;7.90;;;5.53;;
13973;SDS011;7060;43.770;4.008;2022-12-07T09:05:23;8.43;;;4.80;;
13973;SDS011;7060;43.770;4.008;2022-12-07T09:07:54;7.63;;;5.60;;
13973;SDS011;7060;43.770;4.008;2022-12-07T09:10:27;7.50;;;5.07;;
13973;SDS011;7060;43.770;4.008;2022-12-07T09:12:56;8.50;;;5.17;;
13973;SDS011;7060;43.770;4.008;2022-12-07T09:15:27;5.77;;;4.10;;
13973;SDS011;7060;43.770;4.008;2022-12-07T09:17:56;5.83;;;4.07;;
13973;SDS011;7060;43.770;4.008;2022-12-07T09:20:24;6.50;;;4.57;;
13973;SDS011;7060;43.770;4.008;2022-12-07T09:22:55;7.10;;;5.40;;
13973;SDS011;7060;43.770;4.008;2022-12-07T09:25:23;6.13;;;4.13;;
13973;SDS011;7060;43.770;4.008;2022-12-07T09:27:55;5.97;;;4.77;;
13973;SDS011;7060;43.770;4.008;2022-12-07T09:30:24;7.43;;;5.23;;
13973;SDS011;7060;43.770;4.008;2022-12-07T09:32:53;7.43;;;5.63;;
13973;SDS011;7060;43.770;4.008;2022-12-07T09:35:22;8.30;;;5.60;;
13973;SDS011;7060;43.770;4.008;2022-12-07T09:37:51;8.17;;;5.97;;
13973;SDS011;7060;43.770;4.008;2022-12-07T09:40:22;7.53;;;6.10;;
13973;SDS011;7060;43.770;4.008;2022-12-07T09:42:51;7.20;;;5.07;;
13973;SDS011;7060;43.770;4.008;2022-12-07T09:45:22;7.80;;;6.00;;
13973;SDS011;7060;43.770;4.008;2022-12-07T09:47:53;6.00;;;4.20;;
13973;SDS011;7060;43.770;4.008;2022-12-07T09:50:23;5.50;;;4.33;;
13973;SDS011;7060;43.770;4.008;2022-12-07T09:52:54;7.33;;;4.07;;
13973;SDS011;7060;43.770;4.008;2022-12-07T09:55:37;5.10;;;3.53;;
13973;SDS011;7060;43.770;4.008;2022-12-07T09:58:11;6.30;;;4.10;;
13973;SDS011;7060;43.770;4.008;2022-12-07T10:00:48;7.47;;;5.03;;
13973;SDS011;7060;43.770;4.008;2022-12-07T10:03:16;6.30;;;4.00;;
13973;SDS011;7060;43.770;4.008;2022-12-07T10:05:45;6.33;;;3.57;;
13973;SDS011;7060;43.770;4.008;2022-12-07T10:08:15;6.30;;;4.20;;
13973;SDS011;7060;43.770;4.008;2022-12-07T10:10:48;4.00;;;2.97;;
13973;SDS011;7060;43.770;4.008;2022-12-07T10:13:19;3.97;;;2.87;;
13973;SDS011;7060;43.770;4.008;2022-12-07T10:15:50;7.23;;;3.00;;
13973;SDS011;7060;43.770;4.008;2022-12-07T10:18:29;4.33;;;2.90;;
13973;SDS011;7060;43.770;4.008;2022-12-07T10:23:59;4.17;;;3.07;;
13973;SDS011;7060;43.770;4.008;2022-12-07T10:26:32;4.27;;;2.70;;
13973;SDS011;7060;43.770;4.008;2022-12-07T10:29:01;3.90;;;2.90;;
13973;SDS011;7060;43.770;4.008;2022-12-07T10:31:41;3.37;;;2.37;;
13973;SDS011;7060;43.770;4.008;2022-12-07T10:34:15;4.47;;;2.37;;
13973;SDS011;7060;43.770;4.008;2022-12-07T10:36:51;3.07;;;2.20;;
13973;SDS011;7060;43.770;4.008;2022-12-07T10:39:20;2.77;;;1.90;;
13973;SDS011;7060;43.770;4.008;2022-12-07T10:41:54;3.40;;;2.30;;
13973;SDS011;7060;43.770;4.008;2022-12-07T10:44:25;2.83;;;2.20;;
13973;SDS011;7060;43.770;4.008;2022-12-07T10:53:14;3.37;;;2.00;;
13973;SDS011;7060;43.770;4.008;2022-12-07T10:56:01;3.40;;;1.87;;
13973;SDS011;7060;43.770;4.008;2022-12-07T10:58:47;2.97;;;1.83;;
13973;SDS011;7060;43.770;4.008;2022-12-07T11:01:25;2.93;;;1.80;;
13973;SDS011;7060;43.770;4.008;2022-12-07T11:04:08;2.87;;;2.30;;
13973;SDS011;7060;43.770;4.008;2022-12-07T11:06:48;2.40;;;1.80;;
13973;SDS011;7060;43.770;4.008;2022-12-07T11:09:29;4.00;;;2.07;;
13973;SDS011;7060;43.770;4.008;2022-12-07T11:12:32;2.80;;;1.80;;
13973;SDS011;7060;43.770;4.008;2022-12-07T11:15:12;2.77;;;1.90;;
13973;SDS011;7060;43.770;4.008;2022-12-07T11:17:47;2.63;;;1.80;;
13973;SDS011;7060;43.770;4.008;2022-12-07T11:20:34;3.53;;;2.00;;
13973;SDS011;7060;43.770;4.008;2022-12-07T11:23:11;3.00;;;2.13;;
13973;SDS011;7060;43.770;4.008;2022-12-07T11:25:49;3.33;;;2.23;;
13973;SDS011;7060;43.770;4.008;2022-12-07T11:28:27;2.83;;;1.90;;
13973;SDS011;7060;43.770;4.008;2022-12-07T11:31:10;3.80;;;1.87;;
13973;SDS011;7060;43.770;4.008;2022-12-07T11:33:51;2.53;;;1.80;;
13973;SDS011;7060;43.770;4.008;2022-12-07T11:36:31;3.30;;;1.90;;
13973;SDS011;7060;43.770;4.008;2022-12-07T11:39:09;3.23;;;1.70;;
13973;SDS011;7060;43.770;4.008;2022-12-07T11:41:55;2.57;;;1.80;;
13973;SDS011;7060;43.770;4.008;2022-12-07T11:44:31;2.40;;;1.47;;
13973;SDS011;7060;43.770;4.008;2022-12-07T11:47:06;2.80;;;1.77;;
13973;SDS011;7060;43.770;4.008;2022-12-07T11:49:40;3.27;;;1.70;;
13973;SDS011;7060;43.770;4.008;2022-12-07T11:52:15;2.90;;;1.60;;
13973;SDS011;7060;43.770;4.008;2022-12-07T11:54:51;2.20;;;1.47;;
13973;SDS011;7060;43.770;4.008;2022-12-07T11:57:24;2.10;;;1.30;;
13973;SDS011;7060;43.770;4.008;2022-12-07T11:59:56;2.07;;;1.50;;
13973;SDS011;7060;43.770;4.008;2022-12-07T12:02:34;3.07;;;1.37;;
13973;SDS011;7060;43.770;4.008;2022-12-07T12:05:12;2.37;;;1.37;;
13973;SDS011;7060;43.770;4.008;2022-12-07T12:07:44;2.87;;;1.57;;
13973;SDS011;7060;43.770;4.008;2022-12-07T12:10:39;2.40;;;1.47;;
13973;SDS011;7060;43.770;4.008;2022-12-07T12:13:28;2.07;;;1.10;;
13973;SDS011;7060;43.770;4.008;2022-12-07T12:16:59;2.40;;;1.50;;
13973;SDS011;7060;43.770;4.008;2022-12-07T12:19:58;2.03;;;1.43;;
13973;SDS011;7060;43.770;4.008;2022-12-07T12:22:33;2.30;;;1.50;;
13973;SDS011;7060;43.770;4.008;2022-12-07T12:25:05;2.30;;;1.43;;
13973;SDS011;7060;43.770;4.008;2022-12-07T12:27:37;3.00;;;1.50;;
13973;SDS011;7060;43.770;4.008;2022-12-07T12:30:23;6.10;;;2.07;;
13973;SDS011;7060;43.770;4.008;2022-12-07T12:33:01;2.20;;;1.30;;
13973;SDS011;7060;43.770;4.008;2022-12-07T12:35:34;5.57;;;3.67;;
13973;SDS011;7060;43.770;4.008;2022-12-07T12:38:26;7.83;;;5.33;;
13973;SDS011;7060;43.770;4.008;2022-12-07T12:40:57;2.33;;;1.33;;
13973;SDS011;7060;43.770;4.008;2022-12-07T12:46:37;4.53;;;1.87;;
13973;SDS011;7060;43.770;4.008;2022-12-07T12:55:41;3.23;;;1.80;;
13973;SDS011;7060;43.770;4.008;2022-12-07T12:58:31;2.23;;;1.50;;
13973;SDS011;7060;43.770;4.008;2022-12-07T13:13:35;3.27;;;2.10;;
13973;SDS011;7060;43.770;4.008;2022-12-07T13:22:38;2.43;;;1.70;;
13973;SDS011;7060;43.770;4.008;2022-12-07T13:25:12;2.70;;;1.87;;
13973;SDS011;7060;43.770;4.008;2022-12-07T13:27:48;2.50;;;1.70;;
13973;SDS011;7060;43.770;4.008;2022-12-07T13:30:23;2.43;;;1.70;;
13973;SDS011;7060;43.770;4.008;2022-12-07T13:32:52;2.30;;;1.50;;
13973;SDS011;7060;43.770;4.008;2022-12-07T13:35:32;2.50;;;1.67;;
13973;SDS011;7060;43.770;4.008;2022-12-07T13:38:05;2.10;;;1.37;;
13973;SDS011;7060;43.770;4.008;2022-12-07T13:40:43;2.60;;;1.63;;
13973;SDS011;7060;43.770;4.008;2022-12-07T13:43:27;2.97;;;2.00;;
13973;SDS011;7060;43.770;4.008;2022-12-07T13:45:56;2.43;;;1.47;;
13973;SDS011;7060;43.770;4.008;2022-12-07T13:48:28;3.27;;;2.40;;
13973;SDS011;7060;43.770;4.008;2022-12-07T13:51:00;2.50;;;1.60;;
13973;SDS011;7060;43.770;4.008;2022-12-07T13:53:31;3.40;;;2.40;;
13973;SDS011;7060;43.770;4.008;2022-12-07T13:56:01;2.53;;;1.67;;
13973;SDS011;7060;43.770;4.008;2022-12-07T13:58:30;3.93;;;2.73;;
13973;SDS011;7060;43.770;4.008;2022-12-07T14:01:00;3.60;;;2.47;;
13973;SDS011;7060;43.770;4.008;2022-12-07T14:03:31;2.43;;;1.63;;
13973;SDS011;7060;43.770;4.008;2022-12-07T14:06:13;4.23;;;1.50;;
13973;SDS011;7060;43.770;4.008;2022-12-07T14:08:44;2.50;;;1.60;;
13973;SDS011;7060;43.770;4.008;2022-12-07T14:11:18;2.60;;;1.53;;
13973;SDS011;7060;43.770;4.008;2022-12-07T14:13:56;4.53;;;2.20;;
13973;SDS011;7060;43.770;4.008;2022-12-07T14:16:27;3.63;;;2.10;;
13973;SDS011;7060;43.770;4.008;2022-12-07T14:18:57;2.83;;;1.60;;
13973;SDS011;7060;43.770;4.008;2022-12-07T14:21:27;3.20;;;1.80;;
13973;SDS011;7060;43.770;4.008;2022-12-07T14:24:07;2.47;;;1.90;;
13973;SDS011;7060;43.770;4.008;2022-12-07T14:26:40;2.60;;;1.50;;
13973;SDS011;7060;43.770;4.008;2022-12-07T14:29:22;2.90;;;2.17;;
13973;SDS011;7060;43.770;4.008;2022-12-07T14:31:58;3.23;;;1.80;;
13973;SDS011;7060;43.770;4.008;2022-12-07T14:34:32;2.37;;;1.70;;
13973;SDS011;7060;43.770;4.008;2022-12-07T14:37:00;2.60;;;1.60;;
13973;SDS011;7060;43.770;4.008;2022-12-07T14:39:29;6.20;;;1.80;;
13973;SDS011;7060;43.770;4.008;2022-12-07T14:41:58;2.80;;;1.87;;
13973;SDS011;7060;43.770;4.008;2022-12-07T14:44:26;2.63;;;1.63;;
13973;SDS011;7060;43.770;4.008;2022-12-07T14:47:01;2.97;;;1.60;;
13973;SDS011;7060;43.770;4.008;2022-12-07T14:49:50;3.63;;;1.43;;
13973;SDS011;7060;43.770;4.008;2022-12-07T14:52:20;3.50;;;2.10;;
13973;SDS011;7060;43.770;4.008;2022-12-07T14:55:16;2.33;;;1.43;;
13973;SDS011;7060;43.770;4.008;2022-12-07T14:57:52;2.13;;;1.50;;
13973;SDS011;7060;43.770;4.008;2022-12-07T15:00:21;2.67;;;1.60;;
13973;SDS011;7060;43.770;4.008;2022-12-07T15:02:50;2.10;;;1.40;;
13973;SDS011;7060;43.770;4.008;2022-12-07T15:05:19;2.50;;;1.63;;
13973;SDS011;7060;43.770;4.008;2022-12-07T15:07:48;2.67;;;1.80;;
13973;SDS011;7060;43.770;4.008;2022-12-07T15:10:18;1.83;;;1.40;;
13973;SDS011;7060;43.770;4.008;2022-12-07T15:12:51;1.97;;;1.27;;
13973;SDS011;7060;43.770;4.008;2022-12-07T15:15:19;2.37;;;1.60;;
13973;SDS011;7060;43.770;4.008;2022-12-07T15:17:48;2.93;;;1.53;;
13973;SDS011;7060;43.770;4.008;2022-12-07T15:20:16;3.53;;;1.60;;
13973;SDS011;7060;43.770;4.008;2022-12-07T15:22:44;2.80;;;1.70;;
13973;SDS011;7060;43.770;4.008;2022-12-07T15:25:13;2.23;;;1.53;;
13973;SDS011;7060;43.770;4.008;2022-12-07T15:27:41;1.23;;;1.10;;
13973;SDS011;7060;43.770;4.008;2022-12-07T15:30:11;2.53;;;1.70;;
13973;SDS011;7060;43.770;4.008;2022-12-07T15:32:40;2.27;;;1.50;;
13973;SDS011;7060;43.770;4.008;2022-12-07T15:35:08;2.93;;;1.73;;
13973;SDS011;7060;43.770;4.008;2022-12-07T15:37:37;3.17;;;1.87;;
13973;SDS011;7060;43.770;4.008;2022-12-07T15:40:06;2.33;;;1.30;;
13973;SDS011;7060;43.770;4.008;2022-12-07T15:42:36;2.77;;;1.73;;
13973;SDS011;7060;43.770;4.008;2022-12-07T15:45:05;2.77;;;1.50;;
13973;SDS011;7060;43.770;4.008;2022-12-07T15:47:36;2.27;;;1.20;;
13973;SDS011;7060;43.770;4.008;2022-12-07T15:50:25;4.07;;;1.63;;
13973;SDS011;7060;43.770;4.008;2022-12-07T15:52:53;3.53;;;2.13;;
13973;SDS011;7060;43.770;4.008;2022-12-07T15:55:22;2.20;;;1.20;;
13973;SDS011;7060;43.770;4.008;2022-12-07T15:57:50;3.07;;;1.80;;
13973;SDS011;7060;43.770;4.008;2022-12-07T16:00:18;2.17;;;1.37;;
13973;SDS011;7060;43.770;4.008;2022-12-07T16:02:49;3.87;;;2.10;;
13973;SDS011;7060;43.770;4.008;2022-12-07T16:05:17;2.43;;;1.60;;